Tishomingo, OK (73460)

11:53 PM CST on December 20, 2014 (GMT -0600)
Dickson Volunteer Fire Department | Change Station
CLOSE
Current Station
Personal Weather Station
Location: Ardmore, OK
Elevation: 866 ft
Nearby Weather Stations

Elev 866 ft 34.19 °N, 97.00 °W | Updated 9 minutes ago

Overcast
Overcast
43.2 °F
Feels Like 43 °F
N
0.0
Wind Variable Wind from ESE
Gusts 1.0 mph

Today
High -- | Low -- °F
--% Chance of Precip.
Yesterday
High -- | Low -- °F
Precip. -- in
7:28 AM 5:20 PM
Waning Crescent, 1% visible
Pressure 30.18 in
Visibility 10.0 miles
Clouds Scattered Clouds 1100 ft
Overcast 2400 ft
Windchill 43 °F
Dew Point 42 °F
Humidity 94%
Rainfall 0.00 in
Snow Depth Not available.
UV 0 out of 12
Pollen 9.40 out of 12
Air Quality Not available.
Flu Activity Not available.
METAR KADM 210535Z AUTO 00000KT 10SM SCT011 OVC024 07/06 A3018 RMK AO2 T00670058

More Conditions Fewer Conditions

Pressure 30.18 in
Visibility 10.0 miles
Clouds Scattered Clouds 1100 ft
Overcast 2400 ft
Windchill 43 °F
Dew Point 42 °F
Humidity 94%
Rainfall 0.00 in
Snow Depth Not available.
UV 0 out of 12
Pollen 9.40 out of 12
Air Quality Not available.
Flu Activity Not available.
METAR KADM 210535Z AUTO 00000KT 10SM SCT011 OVC024 07/06 A3018 RMK AO2 T00670058

More Conditions Fewer Conditions

10-Day Weather Forecast

Almanac

Astronomy

Dec. 20, 2014 Rise Set
Actual Time
Civil Twilight
Nautical Twilight
Astronomical Twilight
Moon
Length of Visible Light
Length of Day
Tomorrow will be .
, % of the Moon is Illuminated

Today's Extremes

State Highs State Lows

Community

WunderPhotos

Upload Photos

1,779,359 photos uploaded!

WunderBlogs® & News

Nearby

Air Quality

  Air Quality AQ Index Pollutant
Not available.

Snow Depth

Station Depth Elevation

Earthquake Activity

City Distance Mag. Time & Date
Minimum magnitude displayed is 2.5.

Coastal Water Temperatures

Place Temperature

Nearby Weather Stations